createdAt,value
2023-03-19T00:00:10.050Z,96395.44
2023-03-19T00:02:17.811Z,96395.91
2023-03-19T00:04:20.598Z,96403.09
2023-03-19T00:06:22.844Z,96405.72
2023-03-19T00:08:24.428Z,96406.81
2023-03-19T00:10:26.095Z,96402.63
2023-03-19T00:12:27.712Z,96412.66
2023-03-19T00:14:29.225Z,96407.22
2023-03-19T00:16:31.310Z,96404.84
2023-03-19T00:18:32.979Z,96407.91
2023-03-19T00:20:34.909Z,96412.13
2023-03-19T00:22:36.599Z,96413.28
2023-03-19T00:24:39.089Z,96419.13
2023-03-19T00:26:40.621Z,96407.38
2023-03-19T00:28:42.360Z,96412.63
2023-03-19T00:30:45.497Z,96412.63
2023-03-19T00:32:48.240Z,96417.16
2023-03-19T00:34:50.055Z,96407.19
2023-03-19T00:36:52.414Z,96404.97
2023-03-19T00:38:54.763Z,96402.31
2023-03-19T00:40:56.253Z,96409.97
2023-03-19T00:42:57.797Z,96402.22
2023-03-19T00:44:59.453Z,96402.06
2023-03-19T00:47:01.354Z,96407.38
2023-03-19T00:49:02.930Z,96408.59
2023-03-19T00:51:06.845Z,96408.94
2023-03-19T00:53:08.406Z,96406.84
2023-03-19T00:55:10.867Z,96408.75
2023-03-19T00:57:12.340Z,96407.31
2023-03-19T00:59:14.153Z,96408.56
2023-03-19T01:01:17.892Z,96402.47
2023-03-19T01:03:19.606Z,96405.97
2023-03-19T01:05:21.484Z,96409.03
2023-03-19T01:07:23.060Z,96403.66
2023-03-19T01:09:24.553Z,96407.22
2023-03-19T01:11:26.293Z,96412.22
2023-03-19T01:13:28.056Z,96411.16
2023-03-19T01:15:29.714Z,96414.16
2023-03-19T01:17:31.357Z,96420.56
2023-03-19T01:19:33.060Z,96425.16
2023-03-19T01:21:36.365Z,96426.72
2023-03-19T01:23:38.557Z,96426.22
2023-03-19T01:25:40.342Z,96432.38
2023-03-19T01:27:42.081Z,96426.69
2023-03-19T01:29:43.831Z,96430.16
2023-03-19T01:31:54.308Z,96435.88
2023-03-19T01:34:14.858Z,96437.31
2023-03-19T01:36:36.878Z,96428.84
2023-03-19T01:38:41.024Z,96425.34
2023-03-19T01:40:49.048Z,96429.47
2023-03-19T01:42:52.994Z,96415.59
2023-03-19T01:45:38.408Z,96409.25
2023-03-19T01:48:07.283Z,96421.56
2023-03-19T01:50:37.972Z,96428.44
2023-03-19T01:53:01.100Z,96424.00
2023-03-19T01:55:19.998Z,96424.38
2023-03-19T01:57:43.683Z,96418.19
2023-03-19T02:00:10.680Z,96421.91
2023-03-19T02:02:33.985Z,96423.59
2023-03-19T02:04:49.114Z,96420.56
2023-03-19T02:06:51.830Z,96425.81
2023-03-19T02:08:53.780Z,96418.16
2023-03-19T02:11:00.020Z,96427.31
2023-03-19T02:13:01.980Z,96428.13
2023-03-19T02:15:05.278Z,96439.41
2023-03-19T02:17:08.478Z,96430.41
2023-03-19T02:19:16.887Z,96427.66
2023-03-19T02:21:21.073Z,96421.56
2023-03-19T02:23:36.044Z,96417.59
2023-03-19T02:25:48.415Z,96416.47
2023-03-19T02:27:52.067Z,96416.00
2023-03-19T02:29:53.985Z,96418.31
2023-03-19T02:31:57.312Z,96408.31
2023-03-19T02:34:26.497Z,96401.00
2023-03-19T02:36:37.259Z,96398.69
2023-03-19T02:38:40.889Z,96402.63
2023-03-19T02:40:53.868Z,96402.97
2023-03-19T02:42:56.685Z,96411.41
2023-03-19T02:44:58.410Z,96397.69
2023-03-19T02:47:00.100Z,96407.75
2023-03-19T02:49:02.395Z,96400.59
2023-03-19T02:51:05.425Z,96402.00
2023-03-19T02:53:06.914Z,96399.63
2023-03-19T02:55:09.417Z,96401.91
2023-03-19T02:57:11.271Z,96411.31
2023-03-19T02:59:13.324Z,96405.69
2023-03-19T03:01:15.600Z,96404.06
2023-03-19T03:03:17.321Z,96410.09
2023-03-19T03:05:19.242Z,96412.38
2023-03-19T03:07:22.065Z,96416.16
2023-03-19T03:09:23.910Z,96402.28
2023-03-19T03:11:25.574Z,96416.91
2023-03-19T03:13:27.860Z,96413.09
2023-03-19T03:15:29.640Z,96416.16
2023-03-19T03:17:31.188Z,96416.19
2023-03-19T03:19:39.012Z,96422.50
2023-03-19T03:21:41.216Z,96420.84
2023-03-19T03:23:43.022Z,96428.03
2023-03-19T03:25:44.553Z,96419.94
2023-03-19T03:27:46.107Z,96428.75
2023-03-19T03:29:48.860Z,96425.25
2023-03-19T03:31:51.085Z,96434.13
2023-03-19T03:33:52.904Z,96430.25
2023-03-19T03:35:54.541Z,96437.56
2023-03-19T03:37:56.350Z,96430.06
2023-03-19T03:39:58.294Z,96442.09
2023-03-19T03:41:59.939Z,96436.59
2023-03-19T03:44:01.953Z,96433.91
2023-03-19T03:46:05.997Z,96433.22
2023-03-19T03:48:07.630Z,96438.56
2023-03-19T03:50:10.968Z,96437.38
2023-03-19T03:52:13.454Z,96440.47
2023-03-19T03:54:15.346Z,96445.13
2023-03-19T03:56:16.963Z,96442.78
2023-03-19T03:58:18.842Z,96435.44
2023-03-19T04:00:20.903Z,96446.22
2023-03-19T04:02:22.616Z,96440.53
2023-03-19T04:04:24.526Z,96444.31
2023-03-19T04:06:27.732Z,96443.53
2023-03-19T04:08:45.945Z,96447.34
2023-03-19T04:10:47.530Z,96448.13
2023-03-19T04:12:49.614Z,96450.44
2023-03-19T04:14:51.973Z,96453.06
2023-03-19T04:16:53.871Z,96451.22
2023-03-19T04:18:55.564Z,96450.44
2023-03-19T04:20:57.768Z,96460.50
2023-03-19T04:22:59.449Z,96452.94
2023-03-19T04:25:01.104Z,96456.13
2023-03-19T04:27:02.806Z,96460.22
2023-03-19T04:29:06.144Z,96455.94
2023-03-19T04:31:09.359Z,96460.47
2023-03-19T04:33:14.420Z,96453.19
2023-03-19T04:35:18.033Z,96452.03
2023-03-19T04:37:19.893Z,96447.44
2023-03-19T04:39:25.722Z,96448.44
2023-03-19T04:41:27.340Z,96455.66
2023-03-19T04:43:55.826Z,96450.22
2023-03-19T04:45:57.663Z,96448.63
2023-03-19T04:48:01.517Z,96451.66
2023-03-19T04:50:05.395Z,96455.56
2023-03-19T04:52:09.321Z,96446.44
2023-03-19T04:54:10.940Z,96456.59
2023-03-19T04:56:16.047Z,96464.09
2023-03-19T04:58:19.047Z,96463.28
2023-03-19T05:00:28.088Z,96464.41
2023-03-19T05:02:29.585Z,96460.97
2023-03-19T05:04:31.215Z,96467.81
2023-03-19T05:06:38.466Z,96480.34
2023-03-19T05:08:40.643Z,96464.88
2023-03-19T05:10:42.945Z,96471.03
2023-03-19T05:12:44.686Z,96476.09
2023-03-19T05:14:46.471Z,96484.97
2023-03-19T05:17:04.837Z,96485.72
2023-03-19T05:19:19.126Z,96485.34
2023-03-19T05:21:21.412Z,96481.84
2023-03-19T05:23:24.710Z,96485.34
2023-03-19T05:25:37.566Z,96480.28
2023-03-19T05:27:41.906Z,96480.81
2023-03-19T05:29:46.964Z,96487.06
2023-03-19T05:31:55.765Z,96492.03
2023-03-19T05:33:57.338Z,96494.13
2023-03-19T05:35:59.406Z,96505.25
2023-03-19T05:38:19.408Z,96497.91
2023-03-19T05:40:28.634Z,96501.94
2023-03-19T05:42:32.092Z,96500.97
2023-03-19T05:44:34.579Z,96502.66
2023-03-19T05:46:50.868Z,96504.56
2023-03-19T05:48:54.522Z,96510.28
2023-03-19T05:50:56.474Z,96506.69
2023-03-19T05:52:59.506Z,96508.19
2023-03-19T05:55:01.303Z,96507.34
2023-03-19T05:57:12.294Z,96511.00
2023-03-19T05:59:23.105Z,96512.13
2023-03-19T06:01:40.824Z,96522.47
2023-03-19T06:03:42.885Z,96509.41
2023-03-19T06:05:49.705Z,96517.09
2023-03-19T06:08:07.402Z,96520.19
2023-03-19T06:10:24.692Z,96527.41
2023-03-19T06:12:29.875Z,96536.91
2023-03-19T06:14:50.424Z,96541.13
2023-03-19T06:17:11.165Z,96535.41
2023-03-19T06:19:13.412Z,96541.53
2023-03-19T06:21:15.148Z,96550.00
2023-03-19T06:23:16.728Z,96547.13
2023-03-19T06:25:18.644Z,96544.66
2023-03-19T06:27:20.327Z,96553.06
2023-03-19T06:29:22.773Z,96545.31
2023-03-19T06:31:31.055Z,96547.22
2023-03-19T06:33:37.281Z,96549.09
2023-03-19T06:35:39.468Z,96552.22
2023-03-19T06:37:41.609Z,96549.59
2023-03-19T06:39:43.240Z,96546.44
2023-03-19T06:41:44.806Z,96552.94
2023-03-19T06:43:51.374Z,96546.00
2023-03-19T06:45:53.117Z,96538.25
2023-03-19T06:47:54.691Z,96546.63
2023-03-19T06:49:56.465Z,96558.78
2023-03-19T06:51:58.098Z,96559.41
2023-03-19T06:53:59.582Z,96559.28
2023-03-19T06:56:01.355Z,96549.97
2023-03-19T06:58:03.490Z,96558.25
2023-03-19T07:00:06.732Z,96554.25
2023-03-19T07:02:11.537Z,96561.53
2023-03-19T07:04:13.316Z,96569.31
2023-03-19T07:06:14.966Z,96561.06
2023-03-19T07:08:16.765Z,96560.88
2023-03-19T07:10:20.469Z,96567.88
2023-03-19T07:12:22.080Z,96570.34
2023-03-19T07:14:24.368Z,96576.44
2023-03-19T07:16:26.130Z,96571.13
2023-03-19T07:18:27.764Z,96575.16
2023-03-19T07:20:29.359Z,96576.31
2023-03-19T07:22:31.177Z,96577.66
2023-03-19T07:24:32.818Z,96583.81
2023-03-19T07:26:34.399Z,96586.19
2023-03-19T07:28:36.059Z,96590.81
2023-03-19T07:30:38.471Z,96586.66
2023-03-19T07:32:40.270Z,96596.56
2023-03-19T07:34:42.035Z,96590.88
2023-03-19T07:36:43.590Z,96596.09
2023-03-19T07:38:45.202Z,96591.88
2023-03-19T07:41:00.862Z,96594.25
2023-03-19T07:43:03.815Z,96598.81
2023-03-19T07:45:06.069Z,96594.38
2023-03-19T07:47:16.065Z,96600.53
2023-03-19T07:49:27.821Z,96594.75
2023-03-19T07:51:29.509Z,96592.91
2023-03-19T07:53:31.236Z,96600.06
2023-03-19T07:55:32.839Z,96598.28
2023-03-19T07:57:34.520Z,96597.97
2023-03-19T07:59:36.427Z,96592.19
2023-03-19T08:01:38.666Z,96599.91
2023-03-19T08:03:40.402Z,96594.25
2023-03-19T08:05:41.951Z,96587.88
2023-03-19T08:07:45.031Z,96596.38
2023-03-19T08:09:46.744Z,96593.91
2023-03-19T08:11:48.419Z,96594.63
2023-03-19T08:13:50.063Z,96597.31
2023-03-19T08:15:53.379Z,96600.28
2023-03-19T08:18:03.595Z,96597.16
2023-03-19T08:20:08.216Z,96607.28
2023-03-19T08:22:10.581Z,96594.78
2023-03-19T08:24:12.238Z,96596.31
2023-03-19T08:26:13.818Z,96598.06
2023-03-19T08:28:15.457Z,96596.66
2023-03-19T08:30:17.560Z,96599.25
2023-03-19T08:32:19.116Z,96608.41
2023-03-19T08:34:21.820Z,96614.69
2023-03-19T08:36:23.784Z,96622.31
2023-03-19T08:38:25.730Z,96616.50
2023-03-19T08:40:27.673Z,96617.75
2023-03-19T08:42:30.168Z,96623.94
2023-03-19T08:44:31.790Z,96620.00
2023-03-19T08:46:33.759Z,96622.47
2023-03-19T08:48:35.268Z,96616.78
2023-03-19T08:50:37.016Z,96627.31
2023-03-19T08:52:39.265Z,96616.19
2023-03-19T08:54:41.055Z,96620.31
2023-03-19T08:56:42.542Z,96618.03
2023-03-19T08:58:46.523Z,96611.47
2023-03-19T09:00:48.948Z,96618.53
2023-03-19T09:02:50.619Z,96617.97
2023-03-19T09:04:52.454Z,96612.56
2023-03-19T09:06:54.118Z,96613.56
2023-03-19T09:08:55.952Z,96607.94
2023-03-19T09:10:57.589Z,96617.66
2023-03-19T09:13:00.002Z,96624.09
2023-03-19T09:15:01.523Z,96616.38
2023-03-19T09:17:04.284Z,96620.00
2023-03-19T09:19:06.296Z,96624.53
2023-03-19T09:21:08.130Z,96632.81
2023-03-19T09:23:09.796Z,96631.22
2023-03-19T09:25:12.122Z,96627.00
2023-03-19T09:27:13.635Z,96626.34
2023-03-19T09:29:15.436Z,96633.06
2023-03-19T09:31:17.003Z,96623.31
2023-03-19T09:33:20.225Z,96629.03
2023-03-19T09:35:22.912Z,96631.63
2023-03-19T09:37:24.713Z,96633.63
2023-03-19T09:39:26.701Z,96640.75
2023-03-19T09:41:31.476Z,96638.00
2023-03-19T09:44:05.674Z,96637.25
2023-03-19T09:46:17.312Z,96634.91
2023-03-19T09:48:36.066Z,96647.69
2023-03-19T09:50:38.620Z,96645.94
2023-03-19T09:52:47.844Z,96646.25
2023-03-19T09:54:52.733Z,96640.75
2023-03-19T09:56:55.445Z,96648.53
2023-03-19T09:58:57.017Z,96639.25
2023-03-19T10:01:00.091Z,96639.66
2023-03-19T10:03:17.317Z,96647.72
2023-03-19T10:05:42.407Z,96641.22
2023-03-19T10:08:27.197Z,96638.28
2023-03-19T10:10:42.510Z,96645.16
2023-03-19T10:12:55.105Z,96641.38
2023-03-19T10:15:15.469Z,96650.13
2023-03-19T10:17:26.716Z,96643.88
2023-03-19T10:19:45.077Z,96648.13
2023-03-19T10:21:56.905Z,96647.28
2023-03-19T10:24:24.726Z,96638.59
2023-03-19T10:26:31.320Z,96633.44
2023-03-19T10:28:32.920Z,96637.75
2023-03-19T10:30:35.387Z,96644.09
2023-03-19T10:32:49.607Z,96632.06
2023-03-19T10:34:57.515Z,96642.13
2023-03-19T10:37:02.022Z,96634.81
2023-03-19T10:39:07.480Z,96630.31
2023-03-19T10:41:29.757Z,96631.03
2023-03-19T10:43:32.030Z,96631.00
2023-03-19T10:45:38.585Z,96640.69
2023-03-19T10:47:43.100Z,96630.41
2023-03-19T10:49:44.829Z,96637.25
2023-03-19T10:51:46.657Z,96623.06
2023-03-19T10:53:48.546Z,96622.53
2023-03-19T10:56:04.839Z,96632.53
2023-03-19T10:58:16.262Z,96630.56
2023-03-19T11:00:24.835Z,96628.16
2023-03-19T11:02:31.825Z,96629.25
2023-03-19T11:04:33.409Z,96628.13
2023-03-19T11:06:37.058Z,96628.66
2023-03-19T11:08:38.935Z,96633.94
2023-03-19T11:10:47.156Z,96635.13
2023-03-19T11:12:52.820Z,96629.69
2023-03-19T11:14:57.483Z,96620.66
2023-03-19T11:17:07.625Z,96634.56
2023-03-19T11:19:19.330Z,96636.50
2023-03-19T11:21:35.709Z,96641.94
2023-03-19T11:23:41.078Z,96628.41
2023-03-19T11:25:49.969Z,96641.78
2023-03-19T11:28:01.000Z,96632.69
2023-03-19T11:30:12.407Z,96633.28
2023-03-19T11:32:35.541Z,96635.75
2023-03-19T11:35:14.908Z,96631.44
2023-03-19T11:37:54.424Z,96630.78
2023-03-19T11:40:08.448Z,96630.44
2023-03-19T11:42:31.038Z,96619.75
2023-03-19T11:44:45.741Z,96627.50
2023-03-19T11:47:26.174Z,96618.91
2023-03-19T11:49:39.104Z,96616.97
2023-03-19T11:52:08.564Z,96613.59
2023-03-19T11:54:34.587Z,96608.34
2023-03-19T11:56:47.168Z,96620.34
2023-03-19T11:59:19.551Z,96613.06
2023-03-19T12:01:52.967Z,96619.34
2023-03-19T12:04:41.227Z,96614.09
2023-03-19T12:07:01.031Z,96614.38
2023-03-19T12:09:09.645Z,96615.63
2023-03-19T12:11:22.000Z,96617.44
2023-03-19T12:13:57.248Z,96613.25
2023-03-19T12:16:17.308Z,96620.84
2023-03-19T12:18:28.391Z,96615.22
2023-03-19T12:20:36.050Z,96613.81
2023-03-19T12:23:09.642Z,96608.25
2023-03-19T12:25:37.434Z,96609.56
2023-03-19T12:27:41.367Z,96612.47
2023-03-19T12:30:13.395Z,96605.81
2023-03-19T12:32:43.469Z,96604.78
2023-03-19T12:35:02.115Z,96608.47
2023-03-19T12:37:38.546Z,96606.94
2023-03-19T12:39:48.498Z,96603.56
2023-03-19T12:41:52.296Z,96604.09
2023-03-19T12:44:12.343Z,96604.56
2023-03-19T12:46:20.129Z,96594.34
2023-03-19T12:48:30.002Z,96589.22
2023-03-19T12:50:34.563Z,96589.63
2023-03-19T12:52:41.814Z,96585.09
2023-03-19T12:54:48.898Z,96581.56
2023-03-19T12:56:59.662Z,96586.00
2023-03-19T12:59:11.801Z,96590.56
2023-03-19T13:01:22.192Z,96592.16
2023-03-19T13:03:54.757Z,96591.97
2023-03-19T13:06:08.694Z,96586.50
2023-03-19T13:08:29.055Z,96580.13
2023-03-19T13:10:34.463Z,96588.66
2023-03-19T13:12:38.156Z,96584.38
2023-03-19T13:14:54.728Z,96593.44
2023-03-19T13:17:17.238Z,96586.66
2023-03-19T13:19:32.360Z,96590.16
2023-03-19T13:21:37.740Z,96589.66
2023-03-19T13:23:41.504Z,96598.66
2023-03-19T13:25:47.909Z,96591.63
2023-03-19T13:27:54.566Z,96588.44
2023-03-19T13:30:10.573Z,96581.66
2023-03-19T13:32:25.531Z,96586.66
2023-03-19T13:34:31.622Z,96586.63
2023-03-19T13:36:39.384Z,96580.00
2023-03-19T13:38:51.411Z,96575.88
2023-03-19T13:40:55.643Z,96583.16
2023-03-19T13:42:57.602Z,96584.28
2023-03-19T13:45:22.578Z,96579.94
2023-03-19T13:47:26.864Z,96582.06
2023-03-19T13:49:29.603Z,96579.88
2023-03-19T13:51:32.908Z,96584.16
2023-03-19T13:53:40.529Z,96586.59
2023-03-19T13:55:58.561Z,96584.31
2023-03-19T13:58:12.469Z,96585.50
2023-03-19T14:00:59.362Z,96585.16
2023-03-19T14:03:01.627Z,96577.06
2023-03-19T14:05:10.377Z,96579.28
2023-03-19T14:07:11.835Z,96577.81
2023-03-19T14:09:35.773Z,96580.06
2023-03-19T14:11:38.121Z,96572.44
2023-03-19T14:13:43.667Z,96573.44
2023-03-19T14:15:51.090Z,96581.06
2023-03-19T14:18:00.425Z,96578.31
2023-03-19T14:20:28.366Z,96582.28
2023-03-19T14:22:38.616Z,96573.53
2023-03-19T14:24:58.540Z,96576.06
2023-03-19T14:27:26.188Z,96573.19
2023-03-19T14:29:28.655Z,96579.19
2023-03-19T14:31:33.668Z,96575.56
2023-03-19T14:33:38.367Z,96568.25
2023-03-19T14:35:42.769Z,96568.22
2023-03-19T14:37:48.914Z,96577.19
2023-03-19T14:39:59.135Z,96568.09
2023-03-19T14:42:08.463Z,96570.94
2023-03-19T14:44:28.652Z,96586.63
2023-03-19T14:46:51.978Z,96580.03
2023-03-19T14:49:31.935Z,96579.38
2023-03-19T14:51:46.083Z,96582.22
2023-03-19T14:53:54.498Z,96575.94
2023-03-19T14:55:56.395Z,96579.84
2023-03-19T14:58:00.825Z,96582.50
2023-03-19T15:00:07.029Z,96583.69
2023-03-19T15:02:22.475Z,96594.13
2023-03-19T15:04:26.091Z,96589.69
2023-03-19T15:06:33.728Z,96589.75
2023-03-19T15:08:39.269Z,96580.59
2023-03-19T15:11:26.632Z,96581.03
2023-03-19T15:14:00.277Z,96579.50
2023-03-19T15:16:30.720Z,96571.19
2023-03-19T15:18:32.770Z,96572.16
2023-03-19T15:20:42.252Z,96569.47
2023-03-19T15:22:45.578Z,96565.50
2023-03-19T15:24:48.843Z,96570.94
2023-03-19T15:26:50.594Z,96566.69
2023-03-19T15:28:53.989Z,96582.03
2023-03-19T15:31:05.764Z,96581.56
2023-03-19T15:33:39.236Z,96586.00
2023-03-19T15:35:42.866Z,96586.84
2023-03-19T15:37:50.140Z,96587.81
2023-03-19T15:39:55.070Z,96583.53
2023-03-19T15:41:57.529Z,96581.47
2023-03-19T15:44:01.533Z,96585.09
2023-03-19T15:46:03.687Z,96573.38
2023-03-19T15:48:18.204Z,96586.47
2023-03-19T15:50:24.970Z,96590.06
2023-03-19T15:52:27.310Z,96586.63
2023-03-19T15:54:29.141Z,96590.09
2023-03-19T15:56:32.210Z,96598.09
2023-03-19T15:58:39.972Z,96583.13
2023-03-19T16:00:42.164Z,96580.16
2023-03-19T16:02:47.907Z,96575.88
2023-03-19T16:05:18.234Z,96589.75
2023-03-19T16:07:47.836Z,96584.31
2023-03-19T16:09:49.550Z,96586.13
2023-03-19T16:11:51.949Z,96577.00
2023-03-19T16:13:58.581Z,96584.66
2023-03-19T16:16:03.261Z,96592.88
2023-03-19T16:18:17.143Z,96593.66
2023-03-19T16:20:18.797Z,96589.31
2023-03-19T16:22:28.868Z,96604.88
2023-03-19T16:24:35.954Z,96595.31
2023-03-19T16:26:43.271Z,96605.22
2023-03-19T16:28:48.999Z,96606.63
2023-03-19T16:30:51.766Z,96602.63
2023-03-19T16:33:01.668Z,96615.22
2023-03-19T16:35:14.078Z,96616.66
2023-03-19T16:37:31.683Z,96615.09
2023-03-19T16:39:39.107Z,96612.41
2023-03-19T16:41:41.221Z,96606.91
2023-03-19T16:43:46.873Z,96618.22
2023-03-19T16:46:03.601Z,96618.16
2023-03-19T16:48:05.279Z,96622.47
2023-03-19T16:50:07.642Z,96609.88
2023-03-19T16:52:17.535Z,96619.00
2023-03-19T16:54:19.110Z,96617.94
2023-03-19T16:56:21.002Z,96626.94
2023-03-19T16:58:34.842Z,96619.41
2023-03-19T17:00:36.644Z,96626.69
2023-03-19T17:02:39.159Z,96624.72
2023-03-19T17:04:41.076Z,96635.72
2023-03-19T17:06:42.733Z,96635.06
2023-03-19T17:08:44.625Z,96632.25
2023-03-19T17:10:49.306Z,96636.47
2023-03-19T17:12:53.266Z,96642.41
2023-03-19T17:14:54.822Z,96640.72
2023-03-19T17:16:56.907Z,96648.81
2023-03-19T17:18:58.926Z,96645.53
2023-03-19T17:21:14.146Z,96642.59
2023-03-19T17:23:15.893Z,96650.91
2023-03-19T17:25:20.682Z,96649.56
2023-03-19T17:27:22.348Z,96658.13
2023-03-19T17:29:25.339Z,96669.97
2023-03-19T17:31:29.581Z,96668.50
2023-03-19T17:33:31.227Z,96664.28
2023-03-19T17:35:34.128Z,96671.03
2023-03-19T17:37:35.911Z,96674.59
2023-03-19T17:39:37.986Z,96673.34
2023-03-19T17:41:39.570Z,96676.25
2023-03-19T17:43:41.219Z,96679.31
2023-03-19T17:45:46.550Z,96681.13
2023-03-19T17:47:50.981Z,96688.63
2023-03-19T17:49:52.698Z,96695.81
2023-03-19T17:51:55.161Z,96697.00
2023-03-19T17:53:56.674Z,96699.94
2023-03-19T17:55:58.300Z,96693.38
2023-03-19T17:57:59.967Z,96698.66
2023-03-19T18:00:01.508Z,96698.84
2023-03-19T18:02:26.381Z,96695.84
2023-03-19T18:04:28.018Z,96698.63
2023-03-19T18:06:35.392Z,96702.28
2023-03-19T18:08:37.231Z,96705.41
2023-03-19T18:10:38.880Z,96702.31
2023-03-19T18:12:40.446Z,96705.59
2023-03-19T18:14:41.946Z,96706.63
2023-03-19T18:16:43.728Z,96710.03
2023-03-19T18:18:45.888Z,96708.78
2023-03-19T18:20:47.995Z,96708.56
2023-03-19T18:22:49.744Z,96719.47
2023-03-19T18:24:51.220Z,96717.31
2023-03-19T18:26:52.827Z,96723.81
2023-03-19T18:28:54.757Z,96725.03
2023-03-19T18:30:59.680Z,96719.59
2023-03-19T18:33:04.191Z,96725.94
2023-03-19T18:35:06.518Z,96732.34
2023-03-19T18:37:15.461Z,96731.13
2023-03-19T18:39:17.166Z,96723.31
2023-03-19T18:41:20.768Z,96739.50
2023-03-19T18:43:38.521Z,96734.00
2023-03-19T18:45:41.624Z,96734.75
2023-03-19T18:47:44.804Z,96741.66
2023-03-19T18:49:46.529Z,96746.72
2023-03-19T18:52:01.493Z,96747.19
2023-03-19T18:54:04.135Z,96749.94
2023-03-19T18:56:30.638Z,96751.13
2023-03-19T18:58:32.606Z,96745.81
2023-03-19T19:00:38.024Z,96748.50
2023-03-19T19:02:39.613Z,96749.00
2023-03-19T19:04:41.231Z,96749.78
2023-03-19T19:06:48.000Z,96750.88
2023-03-19T19:08:50.242Z,96750.72
2023-03-19T19:10:55.193Z,96759.59
2023-03-19T19:12:56.792Z,96754.34
2023-03-19T19:14:59.057Z,96758.50
2023-03-19T19:17:00.976Z,96764.75
2023-03-19T19:19:04.300Z,96769.38
2023-03-19T19:21:05.807Z,96760.16
2023-03-19T19:23:07.942Z,96752.53
2023-03-19T19:25:15.894Z,96753.22
2023-03-19T19:27:23.635Z,96762.53
2023-03-19T19:29:28.268Z,96770.66
2023-03-19T19:31:32.230Z,96766.97
2023-03-19T19:33:35.765Z,96765.13
2023-03-19T19:35:37.501Z,96764.03
2023-03-19T19:37:39.200Z,96763.69
2023-03-19T19:39:40.666Z,96767.47
2023-03-19T19:41:43.721Z,96772.81
2023-03-19T19:43:47.345Z,96774.38
2023-03-19T19:45:51.578Z,96778.59
2023-03-19T19:47:53.495Z,96777.44
2023-03-19T19:49:56.546Z,96777.44
2023-03-19T19:51:58.061Z,96780.53
2023-03-19T19:54:00.777Z,96779.44
2023-03-19T19:56:18.143Z,96782.50
2023-03-19T19:58:30.837Z,96788.69
2023-03-19T20:00:35.285Z,96786.38
2023-03-19T20:02:36.981Z,96792.56
2023-03-19T20:04:38.689Z,96787.59
2023-03-19T20:06:40.235Z,96790.25
2023-03-19T20:08:42.741Z,96788.34
2023-03-19T20:10:45.773Z,96794.88
2023-03-19T20:12:51.183Z,96794.47
2023-03-19T20:14:53.146Z,96798.31
2023-03-19T20:16:54.731Z,96801.38
2023-03-19T20:18:56.862Z,96809.44
2023-03-19T20:20:59.414Z,96807.50
2023-03-19T20:23:04.004Z,96806.00
2023-03-19T20:25:06.985Z,96814.44
2023-03-19T20:27:20.094Z,96803.69
2023-03-19T20:29:21.805Z,96807.16
2023-03-19T20:31:29.355Z,96809.44
2023-03-19T20:33:32.347Z,96814.44
2023-03-19T20:35:36.289Z,96815.97
2023-03-19T20:37:38.822Z,96809.47
2023-03-19T20:39:40.427Z,96815.56
2023-03-19T20:41:42.093Z,96812.88
2023-03-19T20:43:43.712Z,96807.50
2023-03-19T20:45:45.957Z,96822.09
2023-03-19T20:47:49.210Z,96827.84
2023-03-19T20:49:51.337Z,96825.94
2023-03-19T20:51:52.966Z,96827.09
2023-03-19T20:53:54.547Z,96829.38
2023-03-19T20:55:57.168Z,96830.91
2023-03-19T20:58:00.580Z,96830.50
2023-03-19T21:00:12.813Z,96836.63
2023-03-19T21:02:20.712Z,96830.47
2023-03-19T21:04:23.669Z,96833.94
2023-03-19T21:06:25.277Z,96845.03
2023-03-19T21:08:47.988Z,96835.09
2023-03-19T21:10:50.224Z,96843.91
2023-03-19T21:12:51.783Z,96845.47
2023-03-19T21:14:53.455Z,96850.47
2023-03-19T21:16:55.172Z,96850.47
2023-03-19T21:18:57.387Z,96848.59
2023-03-19T21:20:59.730Z,96846.66
2023-03-19T21:23:24.776Z,96848.94
2023-03-19T21:25:31.410Z,96849.34
2023-03-19T21:27:36.914Z,96856.66
2023-03-19T21:29:38.715Z,96851.63
2023-03-19T21:31:40.632Z,96851.25
2023-03-19T21:33:43.341Z,96853.56
2023-03-19T21:35:44.970Z,96857.00
2023-03-19T21:37:48.097Z,96853.16
2023-03-19T21:39:49.878Z,96850.84
2023-03-19T21:41:51.538Z,96851.59
2023-03-19T21:43:57.272Z,96858.88
2023-03-19T21:45:59.037Z,96866.94
2023-03-19T21:48:39.797Z,96865.03
2023-03-19T21:50:42.929Z,96855.75
2023-03-19T21:52:58.481Z,96868.06
2023-03-19T21:55:02.885Z,96860.34
2023-03-19T21:57:04.558Z,96862.28
2023-03-19T21:59:15.940Z,96868.03
2023-03-19T22:01:23.483Z,96863.81
2023-03-19T22:03:27.534Z,96865.72
2023-03-19T22:05:29.661Z,96864.94
2023-03-19T22:07:31.485Z,96859.94
2023-03-19T22:09:33.014Z,96867.59
2023-03-19T22:11:39.815Z,96863.34
2023-03-19T22:13:43.254Z,96861.78
2023-03-19T22:15:45.359Z,96865.22
2023-03-19T22:17:48.155Z,96867.59
2023-03-19T22:19:50.832Z,96863.41
2023-03-19T22:21:52.420Z,96860.34
2023-03-19T22:23:54.643Z,96852.63
2023-03-19T22:25:56.302Z,96869.50
2023-03-19T22:27:58.484Z,96866.38
2023-03-19T22:30:02.156Z,96864.03
2023-03-19T22:32:03.953Z,96867.16
2023-03-19T22:34:15.087Z,96865.97
2023-03-19T22:36:16.805Z,96867.09
2023-03-19T22:38:20.698Z,96870.88
2023-03-19T22:40:22.348Z,96870.09
2023-03-19T22:42:26.008Z,96872.13
2023-03-19T22:44:30.189Z,96867.94
2023-03-19T22:46:32.733Z,96870.19
2023-03-19T22:48:34.593Z,96874.53
2023-03-19T22:50:36.164Z,96861.81
2023-03-19T22:52:38.259Z,96867.19
2023-03-19T22:54:41.046Z,96861.75
2023-03-19T22:56:42.594Z,96866.22
2023-03-19T22:58:44.576Z,96863.78
2023-03-19T23:00:46.471Z,96865.94
2023-03-19T23:02:54.993Z,96860.88
2023-03-19T23:04:56.579Z,96861.97
2023-03-19T23:07:00.303Z,96866.53
2023-03-19T23:09:01.822Z,96858.19
2023-03-19T23:11:03.379Z,96855.94
2023-03-19T23:13:04.937Z,96855.31
2023-03-19T23:15:07.072Z,96859.09
2023-03-19T23:17:17.403Z,96851.78
2023-03-19T23:19:31.250Z,96845.94
2023-03-19T23:21:32.992Z,96846.34
2023-03-19T23:23:34.530Z,96855.16
2023-03-19T23:25:36.466Z,96855.16
2023-03-19T23:27:38.765Z,96861.47
2023-03-19T23:29:44.371Z,96861.09
2023-03-19T23:31:46.778Z,96852.19
2023-03-19T23:33:48.856Z,96847.47
2023-03-19T23:35:54.535Z,96843.22
2023-03-19T23:37:57.591Z,96837.44
2023-03-19T23:39:59.339Z,96844.78
2023-03-19T23:42:01.046Z,96834.03
2023-03-19T23:44:06.153Z,96847.53
2023-03-19T23:46:10.890Z,96842.03
2023-03-19T23:48:15.958Z,96845.53
2023-03-19T23:50:17.772Z,96847.66
2023-03-19T23:52:19.431Z,96845.38
2023-03-19T23:54:34.794Z,96849.31
2023-03-19T23:56:36.307Z,96843.88
2023-03-19T23:58:42.772Z,96847.00
